createdAt,value
2024-02-05T00:00:53.305Z,11.10
2024-02-05T00:03:41.964Z,10.70
2024-02-05T00:06:12.229Z,10.10
2024-02-05T00:11:10.336Z,12.30
2024-02-05T00:13:38.897Z,8.90
2024-02-05T00:16:07.624Z,5.50
2024-02-05T00:18:36.902Z,10.60
2024-02-05T00:21:05.587Z,6.60
2024-02-05T00:23:34.334Z,11.70
2024-02-05T00:26:04.687Z,12.20
2024-02-05T00:28:33.268Z,10.30
2024-02-05T00:31:02.051Z,11.10
2024-02-05T00:33:30.850Z,10.60
2024-02-05T00:35:59.414Z,9.50
2024-02-05T00:38:28.031Z,9.00
2024-02-05T00:40:56.553Z,8.40
2024-02-05T00:43:25.210Z,5.80
2024-02-05T00:45:53.865Z,4.80
2024-02-05T00:48:23.273Z,4.80
2024-02-05T00:50:51.821Z,4.20
2024-02-05T00:53:20.310Z,4.70
2024-02-05T00:55:48.899Z,3.50
2024-02-05T00:58:18.014Z,2.90
2024-02-05T01:00:47.055Z,1.70
2024-02-05T01:03:15.668Z,0.80
2024-02-05T01:05:44.711Z,2.00
2024-02-05T01:08:14.039Z,0.70
2024-02-05T01:10:44.146Z,2.00
2024-02-05T01:13:12.723Z,0.30
2024-02-05T01:15:41.336Z,0.30
2024-02-05T01:18:09.998Z,1.40
2024-02-05T01:20:38.511Z,1.00
2024-02-05T01:23:07.000Z,0.50
2024-02-05T01:25:35.552Z,0.20
2024-02-05T01:28:04.874Z,1.00
2024-02-05T01:30:34.087Z,0.90
2024-02-05T01:33:02.822Z,0.20
2024-02-05T01:35:31.514Z,0.60
2024-02-05T01:38:00.079Z,1.30
2024-02-05T01:40:28.911Z,0.40
2024-02-05T01:42:57.523Z,0.50
2024-02-05T01:45:26.017Z,0.30
2024-02-05T01:47:54.922Z,1.40
2024-02-05T01:50:23.615Z,0.30
2024-02-05T01:52:52.400Z,1.30
2024-02-05T01:55:25.041Z,2.00
2024-02-05T01:57:55.693Z,0.40
2024-02-05T02:00:27.103Z,0.40
2024-02-05T02:02:56.513Z,0.60
2024-02-05T02:05:25.422Z,0.20
2024-02-05T02:07:54.119Z,1.10
2024-02-05T02:10:22.766Z,0.40
2024-02-05T02:12:51.667Z,0.50
2024-02-05T02:15:20.273Z,2.10
2024-02-05T02:17:51.717Z,0.80
2024-02-05T02:20:25.793Z,0.60
2024-02-05T02:23:07.221Z,1.30
2024-02-05T02:25:40.214Z,0.70
2024-02-05T02:28:08.884Z,0.60
2024-02-05T02:30:40.154Z,1.90
2024-02-05T02:33:48.369Z,0.70
2024-02-05T02:36:26.163Z,1.70
2024-02-05T02:39:23.888Z,0.20
2024-02-05T02:41:57.604Z,0.40
2024-02-05T02:44:28.756Z,0.40
2024-02-05T02:46:59.385Z,0.50
2024-02-05T02:49:28.163Z,2.00
2024-02-05T02:51:56.773Z,0.20
2024-02-05T02:54:26.387Z,0.30
2024-02-05T02:59:24.310Z,0.40
2024-02-05T03:01:52.969Z,0.60
2024-02-05T03:04:21.717Z,1.30
2024-02-05T03:06:50.965Z,0.80
2024-02-05T03:09:19.463Z,0.60
2024-02-05T03:11:47.986Z,1.90
2024-02-05T03:14:16.549Z,0.90
2024-02-05T03:16:45.103Z,0.30
2024-02-05T03:19:13.782Z,0.20
2024-02-05T03:21:42.747Z,0.10
2024-02-05T03:24:11.516Z,0.10
2024-02-05T03:26:40.845Z,0.50
2024-02-05T03:29:10.228Z,0.20
2024-02-05T03:31:43.343Z,0.40
2024-02-05T03:34:12.143Z,0.20
2024-02-05T03:36:40.805Z,0.40
2024-02-05T03:39:11.253Z,0.10
2024-02-05T03:41:40.741Z,0.60
2024-02-05T03:44:09.447Z,0.30
2024-02-05T03:46:38.191Z,0.20
2024-02-05T03:49:07.748Z,0.40
2024-02-05T03:51:36.339Z,0.10
2024-02-05T03:54:09.530Z,0.20
2024-02-05T03:56:41.505Z,0.10
2024-02-05T03:59:11.852Z,0.40
2024-02-05T04:01:41.601Z,0.10
2024-02-05T04:04:12.470Z,0.10
2024-02-05T04:06:41.764Z,0.40
2024-02-05T04:09:10.517Z,0.20
2024-02-05T04:11:43.186Z,0.30
2024-02-05T04:14:11.664Z,0.50
2024-02-05T04:16:40.340Z,0.60
2024-02-05T04:19:08.998Z,0.20
2024-02-05T04:21:37.828Z,1.10
2024-02-05T04:24:06.993Z,0.20
2024-02-05T04:26:35.678Z,0.20
2024-02-05T04:29:11.605Z,0.20
2024-02-05T04:31:40.975Z,1.40
2024-02-05T04:34:09.498Z,0.10
2024-02-05T04:36:38.101Z,0.20
2024-02-05T04:39:13.067Z,0.30
2024-02-05T04:41:42.842Z,0.40
2024-02-05T04:44:11.911Z,0.50
2024-02-05T04:46:41.101Z,0.20
2024-02-05T04:49:09.692Z,0.60
2024-02-05T04:51:39.048Z,2.30
2024-02-05T04:54:08.123Z,0.40
2024-02-05T04:56:36.818Z,0.50
2024-02-05T04:59:05.760Z,0.60
2024-02-05T05:01:34.468Z,0.60
2024-02-05T05:04:04.156Z,0.20
2024-02-05T05:06:32.834Z,0.20
2024-02-05T05:09:01.467Z,0.20
2024-02-05T05:11:30.633Z,0.10
2024-02-05T05:13:59.182Z,0.30
2024-02-05T05:16:32.545Z,0.50
2024-02-05T05:19:02.930Z,0.20
2024-02-05T05:21:31.941Z,0.80
2024-02-05T05:24:00.491Z,1.80
2024-02-05T05:26:29.440Z,0.50
2024-02-05T05:28:57.990Z,0.60
2024-02-05T05:31:26.734Z,0.20
2024-02-05T05:33:56.372Z,1.10
2024-02-05T05:36:25.110Z,3.60
2024-02-05T05:38:53.696Z,2.20
2024-02-05T05:41:22.226Z,5.70
2024-02-05T05:43:53.732Z,1.20
2024-02-05T05:46:22.696Z,1.00
2024-02-05T05:48:51.459Z,0.70
2024-02-05T05:51:20.076Z,0.20
2024-02-05T05:53:48.758Z,0.20
2024-02-05T05:56:17.386Z,0.30
2024-02-05T05:58:46.477Z,1.20
2024-02-05T06:01:15.168Z,0.40
2024-02-05T06:03:45.010Z,0.20
2024-02-05T06:06:14.013Z,1.60
2024-02-05T06:08:42.653Z,0.60
2024-02-05T06:11:11.921Z,1.30
2024-02-05T06:13:40.630Z,0.30
2024-02-05T06:16:12.735Z,1.40
2024-02-05T06:18:41.371Z,0.60
2024-02-05T06:21:10.472Z,0.50
2024-02-05T06:23:39.160Z,1.20
2024-02-05T06:26:10.474Z,1.00
2024-02-05T06:28:40.587Z,3.00
2024-02-05T06:33:44.420Z,1.50
2024-02-05T06:36:13.123Z,1.40
2024-02-05T06:38:42.267Z,2.30
2024-02-05T06:41:10.809Z,1.40
2024-02-05T06:43:41.753Z,0.20
2024-02-05T06:46:11.485Z,0.70
2024-02-05T06:48:41.814Z,0.40
2024-02-05T06:51:11.819Z,0.50
2024-02-05T06:53:41.879Z,0.20
2024-02-05T06:56:11.595Z,1.70
2024-02-05T06:58:40.128Z,1.20
2024-02-05T07:01:09.121Z,0.80
2024-02-05T07:03:40.148Z,2.70
2024-02-05T07:06:09.997Z,10.30
2024-02-05T07:08:43.168Z,3.50
2024-02-05T07:11:11.772Z,0.90
2024-02-05T07:13:40.593Z,0.80
2024-02-05T07:16:16.210Z,0.60
2024-02-05T07:18:47.891Z,0.70
2024-02-05T07:21:20.541Z,1.90
2024-02-05T07:23:49.146Z,0.90
2024-02-05T07:26:17.765Z,1.10
2024-02-05T07:28:46.429Z,1.10
2024-02-05T07:31:15.286Z,0.50
2024-02-05T07:33:44.004Z,1.00
2024-02-05T07:36:12.637Z,1.40
2024-02-05T07:38:41.158Z,3.40
2024-02-05T07:41:11.581Z,1.60
2024-02-05T07:43:40.594Z,1.20
2024-02-05T07:46:09.830Z,0.60
2024-02-05T07:48:38.597Z,0.70
2024-02-05T07:51:07.229Z,0.70
2024-02-05T07:53:35.938Z,0.90
2024-02-05T07:56:10.478Z,1.60
2024-02-05T07:58:39.271Z,0.60
2024-02-05T08:01:08.123Z,0.80
2024-02-05T08:03:37.945Z,0.80
2024-02-05T08:06:09.746Z,1.10
2024-02-05T08:08:38.481Z,1.30
2024-02-05T08:11:08.515Z,1.00
2024-02-05T08:13:37.297Z,0.90
2024-02-05T08:16:08.114Z,0.60
2024-02-05T08:18:39.915Z,2.00
2024-02-05T08:21:08.774Z,6.50
2024-02-05T08:23:38.553Z,1.80
2024-02-05T08:26:08.994Z,3.20
2024-02-05T08:28:47.840Z,0.80
2024-02-05T08:31:17.614Z,1.40
2024-02-05T08:33:46.459Z,2.20
2024-02-05T08:36:18.008Z,0.70
2024-02-05T08:38:46.681Z,0.60
2024-02-05T08:41:18.458Z,1.10
2024-02-05T08:43:47.030Z,1.60
2024-02-05T08:46:15.766Z,2.80
2024-02-05T08:48:47.186Z,1.60
2024-02-05T08:51:16.257Z,0.80
2024-02-05T08:53:47.639Z,1.00
2024-02-05T08:56:16.266Z,1.40
2024-02-05T08:58:48.215Z,1.90
2024-02-05T09:01:17.211Z,0.60
2024-02-05T09:03:47.885Z,1.00
2024-02-05T09:06:17.164Z,0.40
2024-02-05T09:08:45.942Z,0.30
2024-02-05T09:11:15.426Z,0.90
2024-02-05T09:13:50.575Z,1.20
2024-02-05T09:16:19.437Z,0.30
2024-02-05T09:18:48.337Z,0.90
2024-02-05T09:21:17.412Z,3.90
2024-02-05T09:23:46.056Z,0.30
2024-02-05T09:26:17.769Z,1.70
2024-02-05T09:28:46.792Z,0.60
2024-02-05T09:31:15.641Z,1.70
2024-02-05T09:33:44.321Z,2.40
2024-02-05T09:36:12.989Z,6.50
2024-02-05T09:38:41.528Z,4.70
2024-02-05T09:41:13.340Z,3.00
2024-02-05T09:43:43.021Z,2.50
2024-02-05T09:46:19.209Z,0.80
2024-02-05T09:48:49.815Z,2.80
2024-02-05T09:51:21.626Z,1.40
2024-02-05T09:53:50.264Z,2.10
2024-02-05T09:56:19.666Z,2.60
2024-02-05T09:58:48.196Z,2.40
2024-02-05T10:01:19.047Z,1.60
2024-02-05T10:03:50.632Z,2.30
2024-02-05T10:06:21.550Z,2.20
2024-02-05T10:08:58.579Z,1.20
2024-02-05T10:11:29.286Z,3.30
2024-02-05T10:13:58.152Z,3.40
2024-02-05T10:16:26.948Z,3.20
2024-02-05T10:18:55.873Z,3.90
2024-02-05T10:21:27.625Z,3.40
2024-02-05T10:23:57.862Z,5.30
2024-02-05T10:26:33.775Z,5.20
2024-02-05T10:29:14.501Z,5.80
2024-02-05T10:31:56.079Z,3.40
2024-02-05T10:34:25.214Z,3.50
2024-02-05T10:36:54.459Z,3.90
2024-02-05T10:39:25.182Z,3.70
2024-02-05T10:41:57.448Z,6.60
2024-02-05T10:44:37.408Z,5.30
2024-02-05T10:47:10.952Z,10.10
2024-02-05T10:49:42.530Z,9.50
2024-02-05T10:52:16.707Z,4.10
2024-02-05T10:54:48.014Z,6.60
2024-02-05T10:57:20.337Z,4.50
2024-02-05T10:59:49.055Z,7.30
2024-02-05T11:02:26.354Z,7.00
2024-02-05T11:04:57.888Z,7.00
2024-02-05T11:07:30.376Z,5.70
2024-02-05T11:10:03.344Z,7.80
2024-02-05T11:12:33.165Z,8.30
2024-02-05T11:17:37.391Z,8.20
2024-02-05T11:20:10.474Z,12.20
2024-02-05T11:22:43.292Z,10.10
2024-02-05T11:25:12.871Z,9.20
2024-02-05T11:27:43.090Z,8.20
2024-02-05T11:30:17.000Z,12.60
2024-02-05T11:32:46.819Z,10.70
2024-02-05T11:35:16.733Z,12.00
2024-02-05T11:37:48.482Z,12.80
2024-02-05T11:40:24.570Z,14.70
2024-02-05T11:43:07.760Z,10.90
2024-02-05T11:45:37.543Z,14.20
2024-02-05T11:48:10.008Z,11.70
2024-02-05T11:50:38.938Z,12.90
2024-02-05T11:53:07.616Z,14.00
2024-02-05T11:55:37.821Z,10.90
2024-02-05T11:58:08.846Z,11.00
2024-02-05T12:00:37.500Z,10.20
2024-02-05T12:03:07.632Z,13.00
2024-02-05T12:05:36.984Z,15.50
2024-02-05T12:08:10.329Z,11.50
2024-02-05T12:10:40.105Z,13.00
2024-02-05T12:13:08.697Z,15.10
2024-02-05T12:15:39.116Z,18.70
2024-02-05T12:18:08.431Z,13.50
2024-02-05T12:20:37.348Z,13.10
2024-02-05T12:23:06.563Z,15.50
2024-02-05T12:25:42.071Z,26.00
2024-02-05T12:28:16.276Z,12.20
2024-02-05T12:30:45.414Z,13.80
2024-02-05T12:33:17.839Z,20.10
2024-02-05T12:35:59.164Z,11.50
2024-02-05T12:38:31.366Z,18.00
2024-02-05T12:41:01.214Z,11.30
2024-02-05T12:43:31.425Z,17.10
2024-02-05T12:46:04.534Z,21.10
2024-02-05T12:48:35.427Z,18.60
2024-02-05T12:51:04.235Z,17.50
2024-02-05T12:53:36.419Z,18.50
2024-02-05T12:58:34.235Z,18.20
2024-02-05T13:01:02.981Z,16.70
2024-02-05T13:03:37.001Z,18.30
2024-02-05T13:06:07.039Z,19.30
2024-02-05T13:08:44.275Z,18.50
2024-02-05T13:11:13.013Z,41.80
2024-02-05T13:13:41.770Z,47.10
2024-02-05T13:16:11.089Z,33.90
2024-02-05T13:18:39.855Z,44.90
2024-02-05T13:21:08.714Z,23.50
2024-02-05T13:23:37.515Z,26.50
2024-02-05T13:26:07.204Z,26.10
2024-02-05T13:28:36.098Z,20.50
2024-02-05T13:31:06.428Z,29.20
2024-02-05T13:36:05.758Z,23.10
2024-02-05T13:38:35.304Z,19.50
2024-02-05T13:41:05.152Z,27.70
2024-02-05T13:43:34.627Z,26.60
2024-02-05T13:46:05.530Z,15.80
2024-02-05T13:48:37.136Z,20.10
2024-02-05T13:51:05.980Z,18.90
2024-02-05T13:53:34.705Z,29.80
2024-02-05T13:56:05.753Z,24.60
2024-02-05T13:58:34.334Z,42.90
2024-02-05T14:01:02.998Z,23.00
2024-02-05T14:03:31.977Z,17.90
2024-02-05T14:06:01.408Z,24.90
2024-02-05T14:08:31.753Z,17.50
2024-02-05T14:13:33.069Z,27.50
2024-02-05T14:16:02.303Z,24.10
2024-02-05T14:18:31.809Z,59.20
2024-02-05T14:21:00.830Z,20.80
2024-02-05T14:23:29.538Z,19.20
2024-02-05T14:25:58.230Z,16.80
2024-02-05T14:28:27.506Z,24.60
2024-02-05T14:30:56.582Z,26.20
2024-02-05T14:33:26.702Z,20.40
2024-02-05T14:38:27.830Z,21.40
2024-02-05T14:40:56.516Z,20.30
2024-02-05T14:43:27.029Z,31.70
2024-02-05T14:46:01.194Z,23.30
2024-02-05T14:48:29.993Z,21.00
2024-02-05T14:50:58.882Z,22.70
2024-02-05T14:53:37.743Z,20.00
2024-02-05T14:56:09.239Z,30.30
2024-02-05T14:58:39.654Z,30.70
2024-02-05T15:01:09.505Z,18.70
2024-02-05T15:06:07.770Z,26.50
2024-02-05T15:08:38.964Z,19.90
2024-02-05T15:11:07.608Z,24.90
2024-02-05T15:13:36.274Z,17.30
2024-02-05T15:16:05.413Z,17.40
2024-02-05T15:18:34.020Z,22.00
2024-02-05T15:21:02.586Z,16.50
2024-02-05T15:23:31.089Z,17.10
2024-02-05T15:25:59.657Z,24.00
2024-02-05T15:28:30.382Z,16.70
2024-02-05T15:31:01.109Z,23.20
2024-02-05T15:33:30.582Z,17.30
2024-02-05T15:35:59.312Z,18.70
2024-02-05T15:38:28.268Z,15.40
2024-02-05T15:40:56.866Z,23.20
2024-02-05T15:43:26.264Z,21.00
2024-02-05T15:45:55.681Z,25.20
2024-02-05T15:48:25.863Z,20.70
2024-02-05T15:50:55.190Z,20.20
2024-02-05T15:53:23.800Z,74.00
2024-02-05T15:55:52.355Z,28.80
2024-02-05T15:58:21.292Z,20.60
2024-02-05T16:00:49.916Z,22.20
2024-02-05T16:03:18.622Z,25.10
2024-02-05T16:05:47.544Z,27.80
2024-02-05T16:08:16.206Z,38.50
2024-02-05T16:10:44.887Z,48.70
2024-02-05T16:13:14.078Z,50.70
2024-02-05T16:15:42.737Z,32.60
2024-02-05T16:18:11.779Z,28.70
2024-02-05T16:20:42.446Z,22.90
2024-02-05T16:23:13.408Z,23.40
2024-02-05T16:25:42.604Z,42.20
2024-02-05T16:28:11.243Z,37.40
2024-02-05T16:30:39.862Z,24.20
2024-02-05T16:33:11.689Z,25.30
2024-02-05T16:35:42.249Z,22.90
2024-02-05T16:38:13.300Z,20.50
2024-02-05T16:40:42.031Z,28.00
2024-02-05T16:43:10.767Z,23.70
2024-02-05T16:45:39.352Z,15.90
2024-02-05T16:48:08.941Z,23.70
2024-02-05T16:50:37.723Z,30.30
2024-02-05T16:53:06.279Z,33.10
2024-02-05T16:55:35.409Z,33.70
2024-02-05T16:58:04.732Z,42.50
2024-02-05T17:00:33.655Z,29.30
2024-02-05T17:03:02.231Z,32.80
2024-02-05T17:05:31.225Z,30.00
2024-02-05T17:08:00.252Z,25.40
2024-02-05T17:10:28.914Z,28.30
2024-02-05T17:12:57.477Z,30.10
2024-02-05T17:15:27.421Z,39.20
2024-02-05T17:17:59.308Z,34.20
2024-02-05T17:20:28.067Z,29.70
2024-02-05T17:22:56.898Z,18.20
2024-02-05T17:25:25.497Z,22.60
2024-02-05T17:27:54.107Z,20.00
2024-02-05T17:30:24.631Z,21.50
2024-02-05T17:32:53.245Z,25.40
2024-02-05T17:35:22.502Z,20.70
2024-02-05T17:37:51.281Z,30.90
2024-02-05T17:40:19.891Z,23.20
2024-02-05T17:42:48.511Z,20.30
2024-02-05T17:45:17.598Z,27.10
2024-02-05T17:47:46.157Z,26.00
2024-02-05T17:50:15.397Z,20.80
2024-02-05T17:52:48.221Z,11.50
2024-02-05T17:55:20.456Z,16.00
2024-02-05T17:57:50.074Z,15.20
2024-02-05T18:00:18.982Z,13.70
2024-02-05T18:02:59.803Z,15.50
2024-02-05T18:05:39.134Z,17.20
2024-02-05T18:08:20.845Z,18.10
2024-02-05T18:11:12.344Z,15.80
2024-02-05T18:13:52.853Z,10.80
2024-02-05T18:16:27.568Z,13.40
2024-02-05T18:19:03.115Z,16.50
2024-02-05T18:21:36.999Z,12.60
2024-02-05T18:24:07.211Z,12.10
2024-02-05T18:26:35.900Z,12.60
2024-02-05T18:29:04.822Z,8.60
2024-02-05T18:31:35.578Z,13.80
2024-02-05T18:34:14.909Z,18.50
2024-02-05T18:36:52.781Z,28.30
2024-02-05T18:39:25.795Z,14.80
2024-02-05T18:41:59.983Z,9.80
2024-02-05T18:44:32.988Z,11.30
2024-02-05T18:47:10.570Z,14.70
2024-02-05T18:49:59.378Z,17.40
2024-02-05T18:52:34.007Z,10.50
2024-02-05T18:55:08.078Z,13.00
2024-02-05T18:57:49.523Z,11.20
2024-02-05T19:00:34.381Z,11.60
2024-02-05T19:03:12.477Z,14.40
2024-02-05T19:05:57.079Z,11.60
2024-02-05T19:08:36.483Z,16.70
2024-02-05T19:11:15.659Z,9.60
2024-02-05T19:13:53.782Z,8.10
2024-02-05T19:16:31.371Z,14.30
2024-02-05T19:21:44.718Z,10.70
2024-02-05T19:24:27.298Z,12.50
2024-02-05T19:27:08.310Z,12.20
2024-02-05T19:29:46.024Z,14.40
2024-02-05T19:32:19.418Z,11.20
2024-02-05T19:34:53.752Z,15.90
2024-02-05T19:37:28.771Z,11.60
2024-02-05T19:40:00.180Z,14.70
2024-02-05T19:42:28.932Z,13.60
2024-02-05T19:44:57.576Z,13.50
2024-02-05T19:47:26.325Z,14.90
2024-02-05T19:49:55.095Z,9.90
2024-02-05T19:52:23.917Z,15.40
2024-02-05T19:54:53.229Z,14.60
2024-02-05T19:57:21.887Z,9.70
2024-02-05T19:59:50.575Z,9.50
2024-02-05T20:02:20.071Z,10.30
2024-02-05T20:07:18.074Z,11.70
2024-02-05T20:09:46.609Z,12.00
2024-02-05T20:12:15.864Z,12.70
2024-02-05T20:14:44.750Z,9.60
2024-02-05T20:17:13.316Z,12.20
2024-02-05T20:19:42.398Z,11.50
2024-02-05T20:22:13.197Z,15.80
2024-02-05T20:24:41.823Z,16.20
2024-02-05T20:27:10.391Z,13.30
2024-02-05T20:29:38.987Z,11.40
2024-02-05T20:32:09.814Z,8.00
2024-02-05T20:34:38.453Z,7.20
2024-02-05T20:37:07.108Z,7.50
2024-02-05T20:39:35.652Z,13.60
2024-02-05T20:42:04.446Z,13.10
2024-02-05T20:44:34.162Z,19.80
2024-02-05T20:47:02.708Z,12.40
2024-02-05T20:49:31.535Z,16.50
2024-02-05T20:52:00.262Z,10.40
2024-02-05T20:54:33.436Z,9.70
2024-02-05T20:57:02.608Z,10.40
2024-02-05T20:59:31.171Z,12.00
2024-02-05T21:01:59.977Z,17.10
2024-02-05T21:04:28.833Z,9.70
2024-02-05T21:06:57.616Z,13.70
2024-02-05T21:09:28.941Z,15.10
2024-02-05T21:11:57.676Z,9.40
2024-02-05T21:14:26.307Z,15.60
2024-02-05T21:16:56.044Z,26.10
2024-02-05T21:19:24.615Z,23.90
2024-02-05T21:21:53.951Z,37.50
2024-02-05T21:24:25.208Z,22.90
2024-02-05T21:26:53.723Z,16.80
2024-02-05T21:29:22.385Z,12.80
2024-02-05T21:31:50.870Z,20.10
2024-02-05T21:34:19.638Z,12.80
2024-02-05T21:36:48.836Z,15.90
2024-02-05T21:39:17.504Z,14.70
2024-02-05T21:41:46.756Z,11.80
2024-02-05T21:44:15.360Z,9.20
2024-02-05T21:46:48.263Z,10.40
2024-02-05T21:49:16.936Z,11.60
2024-02-05T21:51:45.568Z,16.70
2024-02-05T21:54:14.058Z,11.90
2024-02-05T21:56:42.723Z,12.50
2024-02-05T21:59:14.474Z,11.90
2024-02-05T22:01:43.313Z,10.00
2024-02-05T22:04:12.148Z,10.60
2024-02-05T22:06:41.427Z,12.20
2024-02-05T22:09:11.012Z,11.20
2024-02-05T22:11:39.582Z,22.30
2024-02-05T22:14:08.083Z,19.30
2024-02-05T22:16:36.675Z,45.10
2024-02-05T22:19:05.516Z,27.60
2024-02-05T22:21:36.772Z,31.40
2024-02-05T22:24:07.082Z,21.50
2024-02-05T22:26:35.889Z,12.60
2024-02-05T22:29:08.243Z,13.90
2024-02-05T22:31:40.265Z,10.30
2024-02-05T22:34:13.355Z,14.50
2024-02-05T22:36:48.509Z,9.70
2024-02-05T22:39:17.063Z,12.50
2024-02-05T22:41:45.597Z,10.70
2024-02-05T22:44:14.912Z,12.20
2024-02-05T22:46:44.434Z,8.30
2024-02-05T22:49:13.328Z,7.50
2024-02-05T22:51:42.159Z,12.10
2024-02-05T22:54:10.720Z,9.60
2024-02-05T22:56:39.280Z,16.00
2024-02-05T22:59:07.812Z,15.50
2024-02-05T23:01:36.580Z,10.10
2024-02-05T23:04:05.377Z,14.30
2024-02-05T23:06:34.199Z,16.70
2024-02-05T23:09:02.805Z,12.40
2024-02-05T23:11:31.310Z,18.20
2024-02-05T23:14:07.074Z,11.00
2024-02-05T23:16:35.929Z,10.20
2024-02-05T23:19:05.579Z,12.30
2024-02-05T23:21:34.222Z,18.50
2024-02-05T23:24:03.927Z,8.70
2024-02-05T23:26:32.502Z,11.40
2024-02-05T23:29:02.928Z,11.10
2024-02-05T23:31:32.175Z,13.30
2024-02-05T23:34:00.982Z,13.50
2024-02-05T23:36:30.431Z,11.40
2024-02-05T23:38:59.166Z,10.40
2024-02-05T23:41:27.787Z,10.60
2024-02-05T23:43:56.342Z,11.50
2024-02-05T23:46:25.022Z,10.50
2024-02-05T23:48:53.701Z,17.00
2024-02-05T23:51:22.241Z,12.80
2024-02-05T23:53:50.749Z,14.20
2024-02-05T23:56:19.280Z,12.80
2024-02-05T23:58:47.913Z,17.10
